Leighton-Linslade, United Kingdom
Current Conditions -  °F | °C
As of 10:20 AM on Friday 31 Oct 2014 (Local Time) from EGTC Reporting Station
Clear Clear  
Wind Chill: 63°   Ceiling: Unl
Heat Index: 63°   Visibility: 5mi
Dew Point: 61°   Wind: 14mph
Humidity: 94%   Direction: 180°S
Pressure: 30"   Gusts: NA
Location:  51.92°N, 0.68°W
Report Text: EGTC 311020Z 18012KT 8000 NSC 17/16 Q1016
Loading
Personal Weather Stations






























Interactive Weather Map
Tropical Storm Tracking
New forecast layout! Learn more

10-Day Weather Forecast

Advertisements
Track Severe Weather on mobile